Stamford Pioneer — VRJD7 — position and weather

sailwx.info

Track history (hours):
 
Tides and Currents Weather Stations Pressure Air Temp Water Temp Dewpoint Dewpoint Depression Visibility Wind Speed Wind Dir Waves Ship Positions

Stamford Pioneer

Last reported at 2017-Jun-11 16:07 UTC. Time now 2017-Jun-25 05:28 UTC.
Position N 31°02' E 122°16'.
Warning: this ship's position is 13 days out of date.

Length 180 m; draft 5.9 m.

Type: Cargo ship. MMSI: 477462800.

Date/timePositionNaut miles runAvg speedWind from/ knotsBaromVisibWave heightAir tempDewpointWater temp
2017-Jun-11 16:07N 31°02' E 122°16'210.3
2017-Jun-11 15:54N 31°02' E 122°13'3 7.3
2017-Jun-11 15:31N 31°03' E 122°10'610.9
2017-Jun-11 15:00N 31°04' E 122°04'5 9.6
2017-Jun-11 14:30N 31°06' E 121°58'10 9.9
2017-Jun-11 13:30N 31°12' E 121°49'714.6
2017-Jun-11 13:00N 31°18' E 121°44'510.8
2017-Jun-11 12:30N 31°21' E 121°39'511.0
2017-Jun-11 12:00N 31°24' E 121°33'5 9.3
2017-Jun-11 11:30N 31°27' E 121°29'510.7
2017-Jun-11 11:00N 31°30' E 121°24'611.2
2017-Jun-11 10:30N 31°33' E 121°19'713.6
2017-Jun-11 10:00N 31°39' E 121°14'5 2.4
2017-Jun-11 07:55N 31°42' E 121°09'0 0.0
2017-Jun-11 03:13N 31°42' E 121°09'0 0.0
2017-Jun-11 02:49N 31°42' E 121°09'0 0.0
2017-Jun-11 02:19N 31°42' E 121°09'0 0.0
2017-Jun-11 01:47N 31°42' E 121°09'0 0.0
2017-Jun-11 01:19N 31°42' E 121°09'0 0.0
2017-Jun-11 01:00N 31°42' E 121°09'0 0.0
2017-Jun-11 00:24N 31°42' E 121°09'0 0.0
2017-Jun-10 23:54N 31°42' E 121°09'0 0.0
2017-Jun-10 23:06N 31°42' E 121°09'0 0.0
2017-Jun-10 23:00N 31°42' E 121°09'0 0.0
2017-Jun-10 17:15N 31°42' E 121°09'0 0.0
2017-Jun-10 16:57N 31°42' E 121°09'0 0.0
2017-Jun-10 14:54N 31°42' E 121°09'0 0.0
2017-Jun-10 14:00N 31°42' E 121°09'0 0.0
2017-Jun-10 13:12N 31°42' E 121°09'0 0.0
2017-Jun-10 13:00N 31°42' E 121°09'0 0.0
2017-Jun-10 12:30N 31°42' E 121°09'0 0.0
2017-Jun-10 12:00N 31°42' E 121°09'0 0.0
2017-Jun-10 11:30N 31°42' E 121°09'0 0.0
2017-Jun-10 10:48N 31°42' E 121°09'0 0.0
2017-Jun-10 10:30N 31°42' E 121°09'0 0.0
2017-Jun-10 09:54N 31°42' E 121°09'0 0.0
2017-Jun-10 08:15N 31°42' E 121°09'0 0.0
2017-Jun-10 08:00N 31°42' E 121°09'0 0.0
2017-Jun-10 07:30N 31°42' E 121°09'0 0.0
2017-Jun-10 06:36N 31°42' E 121°09'0 0.0
2017-Jun-10 06:24N 31°42' E 121°09'0 0.0
2017-Jun-10 02:18N 31°42' E 121°09'0 0.0
2017-Jun-10 02:00N 31°42' E 121°09'0 0.0
2017-Jun-09 23:43N 31°42' E 121°09'0 0.0
2017-Jun-09 23:25N 31°42' E 121°09'0 0.0
2017-Jun-09 22:55N 31°42' E 121°09'0 0.0
2017-Jun-09 22:25N 31°42' E 121°09'0 0.0
2017-Jun-09 21:37N 31°42' E 121°09'0 0.0
2017-Jun-09 21:01N 31°42' E 121°09'0 0.0
2017-Jun-09 20:31N 31°42' E 121°09'0 0.0
2017-Jun-09 20:25N 31°42' E 121°09'0 0.0
2017-Jun-09 18:13N 31°42' E 121°09'0 0.0
2017-Jun-09 10:37N 31°42' E 121°09'0 0.0
2017-Jun-09 10:25N 31°42' E 121°09'0 0.0
2017-Jun-09 07:55N 31°42' E 121°09'0 0.0
2017-Jun-09 05:19N 31°42' E 121°09'0 0.0
2017-Jun-09 00:07N 31°42' E 121°09'0 0.0
2017-Jun-08 23:37N 31°42' E 121°09'0 0.0
2017-Jun-08 22:37N 31°42' E 121°09'0 0.0
2017-Jun-08 22:25N 31°42' E 121°09'0 0.0
2017-Jun-08 21:55N 31°42' E 121°09'0 0.0
2017-Jun-08 21:19N 31°42' E 121°09'0 0.0
2017-Jun-08 20:55N 31°42' E 121°09'0 0.0
2017-Jun-08 20:25N 31°42' E 121°09'0 0.0
2017-Jun-08 15:43N 31°42' E 121°09'0 0.0
2017-Jun-08 15:19N 31°42' E 121°09'0 0.0
2017-Jun-08 13:25N 31°42' E 121°09'0 0.0
2017-Jun-08 11:28N 31°42' E 121°09'0 0.0
2017-Jun-08 09:40N 31°42' E 121°09'0 0.0
2017-Jun-08 09:28N 31°42' E 121°09'0 0.0
2017-Jun-08 08:52N 31°42' E 121°09'0 0.0
2017-Jun-08 08:22N 31°42' E 121°09'0 0.0
2017-Jun-08 07:16N 31°42' E 121°09'0 0.0
2017-Jun-08 06:28N 31°42' E 121°09'0 0.0
2017-Jun-08 02:55N 31°42' E 121°09'0 0.0
2017-Jun-08 01:34N 31°42' E 121°09'0 0.0
2017-Jun-07 10:34N 31°42' E 121°09'0 0.0
2017-Jun-07 10:19N 31°42' E 121°09'0 0.0
2017-Jun-07 09:55N 31°42' E 121°09'0 0.0
2017-Jun-07 08:49N 31°42' E 121°09'0 0.0
2017-Jun-07 08:25N 31°42' E 121°09'0 0.0
2017-Jun-07 07:49N 31°42' E 121°09'0 0.0
2017-Jun-07 07:28N 31°42' E 121°09'0 0.0
2017-Jun-07 06:55N 31°42' E 121°09'0 0.0
2017-Jun-07 04:07N 31°42' E 121°09'0 0.0
2017-Jun-06 13:58N 31°42' E 121°09'0 0.0
2017-Jun-06 12:19N 31°42' E 121°09'0 0.0
2017-Jun-06 11:49N 31°42' E 121°09'0 0.0
2017-Jun-06 11:25N 31°42' E 121°09'0 0.0
2017-Jun-06 10:55N 31°42' E 121°09'0 0.0
2017-Jun-06 10:07N 31°42' E 121°09'0 0.0
2017-Jun-06 09:52N 31°42' E 121°09'0 0.0
2017-Jun-06 09:13N 31°42' E 121°09'0 0.0
2017-Jun-06 08:58N 31°42' E 121°09'0 0.0
2017-Jun-06 08:19N 31°42' E 121°09'0 0.0
2017-Jun-06 07:49N 31°42' E 121°09'0 0.0
2017-Jun-06 07:25N 31°42' E 121°09'0 0.0
2017-Jun-05 22:25N 31°42' E 121°09'0 0.0
2017-Jun-05 20:01N 31°42' E 121°09'0 0.1
2017-Jun-05 19:55N 31°42' E 121°09'0 0.0
2017-Jun-05 19:16N 31°42' E 121°09'0 0.0
2017-Jun-05 13:49N 31°42' E 121°09'0 0.0
2017-Jun-05 13:25N 31°42' E 121°09'0 0.0
2017-Jun-05 12:55N 31°42' E 121°09'0 0.0
2017-Jun-05 12:25N 31°42' E 121°09'0 0.0
2017-Jun-05 09:13N 31°42' E 121°09'0 1.0
2017-Jun-05 08:59N 31°42' E 121°09'3 6.0
2017-Jun-05 08:30N 31°40' E 121°12'2 4.8
2017-Jun-05 08:00N 31°39' E 121°15'0 0.1
2017-Jun-05 07:30N 31°39' E 121°15'0 0.0
2017-Jun-05 07:00N 31°39' E 121°15'0 0.0
2017-Jun-05 06:30N 31°39' E 121°15'0 0.1
2017-Jun-05 06:00N 31°39' E 121°15'0 0.3
2017-Jun-05 05:30N 31°39' E 121°15'0 0.2
2017-Jun-05 05:00N 31°39' E 121°15'0 0.0
2017-Jun-05 04:24N 31°39' E 121°15'0 0.1
2017-Jun-05 04:00N 31°40' E 121°15'0 0.1
2017-Jun-05 03:30N 31°39' E 121°15'0 0.0
2017-Jun-05 03:00N 31°39' E 121°15'0 0.0
2017-Jun-05 02:28N 31°39' E 121°15'0 0.0
2017-Jun-05 01:58N 31°39' E 121°15'0 0.0
2017-Jun-05 01:19N 31°39' E 121°15'0 0.0
2017-Jun-05 00:52N 31°39' E 121°15'0 0.0
2017-Jun-05 00:28N 31°39' E 121°15'0 0.0
2017-Jun-04 23:58N 31°39' E 121°15'0 0.1
2017-Jun-04 23:22N 31°39' E 121°15'0 0.4
2017-Jun-04 22:58N 31°39' E 121°15'0 0.1
2017-Jun-04 22:28N 31°39' E 121°15'0 0.0
2017-Jun-04 21:58N 31°39' E 121°15'0 0.0
2017-Jun-04 21:28N 31°39' E 121°15'0 0.0
2017-Jun-04 20:52N 31°39' E 121°15'0 0.0
2017-Jun-04 20:22N 31°39' E 121°15'0 0.0
2017-Jun-04 19:52N 31°39' E 121°15'0 0.0
2017-Jun-04 19:28N 31°39' E 121°15'0 0.0
2017-Jun-04 18:58N 31°39' E 121°15'0 0.0
2017-Jun-04 18:31N 31°39' E 121°15'0 0.0
2017-Jun-04 17:58N 31°39' E 121°15'0 0.1
2017-Jun-04 17:28N 31°39' E 121°15'0 0.2
2017-Jun-04 16:58N 31°39' E 121°15'0 0.2
2017-Jun-04 16:28N 31°39' E 121°15'0 0.0
2017-Jun-04 15:34N 31°39' E 121°15'0 0.3
2017-Jun-04 15:22N 31°39' E 121°15'0 0.0
2017-Jun-04 14:58N 31°39' E 121°15'0 0.0
2017-Jun-04 14:28N 31°39' E 121°15'0 0.0
2017-Jun-04 13:28N 31°39' E 121°15'0 0.0
2017-Jun-04 12:52N 31°39' E 121°15'0 0.0
2017-Jun-04 12:28N 31°39' E 121°15'0 0.0
2017-Jun-04 11:58N 31°39' E 121°15'0 0.1
2017-Jun-04 11:28N 31°39' E 121°15'0 0.2
2017-Jun-04 10:58N 31°39' E 121°15'0 0.2
2017-Jun-04 10:28N 31°39' E 121°15'0 0.0
2017-Jun-04 09:58N 31°39' E 121°15'0 0.1
2017-Jun-04 09:24N 31°39' E 121°15'0 0.0
2017-Jun-04 09:00N 31°39' E 121°15'0 0.0
2017-Jun-04 08:30N 31°39' E 121°15'0 0.0
2017-Jun-04 07:54N 31°39' E 121°15'0 0.0
2017-Jun-04 07:30N 31°39' E 121°15'0 0.0
2017-Jun-04 07:00N 31°39' E 121°15'0 0.0
2017-Jun-04 06:18N 31°39' E 121°15'0 0.0
2017-Jun-04 05:54N 31°39' E 121°15'0 0.0
2017-Jun-04 05:30N 31°39' E 121°15'0 0.0
2017-Jun-04 05:00N 31°39' E 121°15'0 0.1
2017-Jun-04 04:30N 31°39' E 121°15'0 0.2
2017-Jun-04 04:00N 31°39' E 121°15'0 0.2
2017-Jun-04 03:30N 31°39' E 121°15'0 0.0
2017-Jun-04 03:00N 31°39' E 121°15'0 0.0
2017-Jun-04 02:27N 31°39' E 121°15'0 0.0
2017-Jun-04 01:57N 31°39' E 121°15'0 0.0
2017-Jun-04 01:27N 31°39' E 121°15'0 0.0
2017-Jun-04 01:00N 31°39' E 121°15'0 0.0
2017-Jun-04 00:15N 31°39' E 121°15'0 0.0
2017-Jun-03 23:57N 31°39' E 121°15'0 0.0
2017-Jun-03 23:18N 31°39' E 121°15'0 0.0
2017-Jun-03 23:00N 31°39' E 121°15'0 0.3
2017-Jun-03 22:30N 31°39' E 121°15'0 0.1
2017-Jun-03 22:00N 31°39' E 121°15'0 0.1
2017-Jun-03 21:30N 31°39' E 121°15'0 0.0
2017-Jun-03 21:00N 31°39' E 121°15'0 0.0
2017-Jun-03 20:30N 31°39' E 121°15'0 0.0
2017-Jun-03 20:00N 31°39' E 121°15'0 0.0
2017-Jun-03 19:30N 31°39' E 121°15'0 0.0
2017-Jun-03 19:00N 31°39' E 121°15'0 0.0
2017-Jun-03 18:30N 31°39' E 121°15'0 0.0
2017-Jun-03 17:54N 31°39' E 121°15'0 0.0
2017-Jun-03 17:30N 31°39' E 121°15'0 0.0
2017-Jun-03 16:54N 31°39' E 121°15'0 0.1
2017-Jun-03 16:30N 31°39' E 121°15'0 0.2
2017-Jun-03 15:54N 31°39' E 121°15'0 0.3
2017-Jun-03 15:30N 31°39' E 121°15'0 0.1
2017-Jun-03 15:00N 31°39' E 121°15'0 0.0
2017-Jun-03 14:00N 31°39' E 121°15'0 0.0
2017-Jun-03 13:30N 31°39' E 121°15'0 0.0
2017-Jun-03 13:00N 31°39' E 121°15'0 0.0
2017-Jun-03 12:14N 31°39' E 121°15'0 0.0
2017-Jun-03 12:00N 31°39' E 121°15'0 0.0
2017-Jun-03 11:06N 31°39' E 121°15'0 0.2
2017-Jun-03 11:00N 31°39' E 121°15'0 0.0
2017-Jun-03 10:30N 31°39' E 121°15'0 0.1
2017-Jun-03 10:00N 31°39' E 121°15'0 0.2
2017-Jun-03 09:30N 31°39' E 121°15'0 0.2
2017-Jun-03 08:54N 31°39' E 121°15'0 0.0
2017-Jun-03 08:24N 31°39' E 121°15'0 0.0
2017-Jun-03 08:00N 31°39' E 121°15'0 0.0
2017-Jun-03 07:30N 31°39' E 121°15'0 0.0
2017-Jun-03 06:54N 31°39' E 121°15'0 0.0
2017-Jun-03 06:30N 31°39' E 121°15'0 0.0
2017-Jun-03 05:54N 31°39' E 121°15'0 0.0
2017-Jun-03 05:30N 31°39' E 121°15'0 0.1
2017-Jun-03 05:00N 31°39' E 121°15'2 3.3
2017-Jun-03 04:30N 31°38' E 121°16'510.9
2017-Jun-03 04:00N 31°34' E 121°19'611.5
2017-Jun-03 03:30N 31°30' E 121°25'611.5
2017-Jun-03 03:00N 31°26' E 121°30'3 5.7
2017-Jun-03 02:30N 31°25' E 121°32'3 5.3
2017-Jun-03 02:01N 31°23' E 121°35'4 7.3
2017-Jun-03 01:29N 31°21' E 121°39'510.5
2017-Jun-03 01:00N 31°19' E 121°44'510.8
2017-Jun-03 00:30N 31°17' E 121°50'611.0
2017-Jun-03 00:00N 31°15' E 121°56'610.8
2017-Jun-02 23:29N 31°14' E 122°03'510.7
2017-Jun-02 23:00N 31°12' E 122°08'611.7
2017-Jun-02 22:29N 31°09' E 122°14'910.9
2017-Jun-02 21:40N 31°06' E 122°24'211.3
2017-Jun-02 21:31N 31°07' E 122°26'4 8.3
2017-Jun-02 20:59N 31°07' E 122°31'4 8.6
2017-Jun-02 20:30N 31°07' E 122°36'2 4.3
2017-Jun-02 20:00N 31°07' E 122°38'1 2.3
2017-Jun-02 19:30N 31°07' E 122°40'3 5.9
2017-Jun-02 19:00N 31°07' E 122°43'611.4
2017-Jun-02 18:30N 31°11' E 122°48'713.1
2017-Jun-02 18:00N 31°17' E 122°51'713.4
2017-Jun-02 17:28N 31°24' E 122°55'613.7
2017-Jun-02 16:59N 31°29' E 122°58'713.8
2017-Jun-02 16:30N 31°36' E 123°01'3913.6
2017-Jun-02 13:38N 32°11' E 123°21'413.3
2017-Jun-02 13:22N 32°14' E 123°23'513.0
2017-Jun-02 12:58N 32°19' E 123°26'2712.6
2017-Jun-02 10:50N 32°43' E 123°39'412.2
2017-Jun-02 10:28N 32°47' E 123°41'612.1
2017-Jun-02 09:59N 32°52' E 123°45'712.3
2017-Jun-02 09:24N 32°59' E 123°48'  
Track history (hours):
 
Tides and Currents Weather Stations Pressure Air Temp Water Temp Dewpoint Dewpoint Depression Visibility Wind Speed Wind Dir Waves Ship Positions

Stamford Pioneer

Last reported at 2017-Jun-11 16:07 UTC. Time now 2017-Jun-25 05:28 UTC.
Position N 31°02' E 122°16'.
Warning: this ship's position is 13 days out of date.

Length 180 m; draft 5.9 m.

Type: Cargo ship. MMSI: 477462800.

Date/timePositionNaut miles runAvg speedWind from/ knotsBaromVisibWave heightAir tempDewpointWater temp
2017-Jun-11 16:07N 31°02' E 122°16'210.3
2017-Jun-11 15:54N 31°02' E 122°13'3 7.3
2017-Jun-11 15:31N 31°03' E 122°10'610.9
2017-Jun-11 15:00N 31°04' E 122°04'5 9.6
2017-Jun-11 14:30N 31°06' E 121°58'10 9.9
2017-Jun-11 13:30N 31°12' E 121°49'714.6
2017-Jun-11 13:00N 31°18' E 121°44'510.8
2017-Jun-11 12:30N 31°21' E 121°39'511.0
2017-Jun-11 12:00N 31°24' E 121°33'5 9.3
2017-Jun-11 11:30N 31°27' E 121°29'510.7
2017-Jun-11 11:00N 31°30' E 121°24'611.2
2017-Jun-11 10:30N 31°33' E 121°19'713.6
2017-Jun-11 10:00N 31°39' E 121°14'5 2.4
2017-Jun-11 07:55N 31°42' E 121°09'0 0.0
2017-Jun-11 03:13N 31°42' E 121°09'0 0.0
2017-Jun-11 02:49N 31°42' E 121°09'0 0.0
2017-Jun-11 02:19N 31°42' E 121°09'0 0.0
2017-Jun-11 01:47N 31°42' E 121°09'0 0.0
2017-Jun-11 01:19N 31°42' E 121°09'0 0.0
2017-Jun-11 01:00N 31°42' E 121°09'0 0.0
2017-Jun-11 00:24N 31°42' E 121°09'0 0.0
2017-Jun-10 23:54N 31°42' E 121°09'0 0.0
2017-Jun-10 23:06N 31°42' E 121°09'0 0.0
2017-Jun-10 23:00N 31°42' E 121°09'0 0.0
2017-Jun-10 17:15N 31°42' E 121°09'0 0.0
2017-Jun-10 16:57N 31°42' E 121°09'0 0.0
2017-Jun-10 14:54N 31°42' E 121°09'0 0.0
2017-Jun-10 14:00N 31°42' E 121°09'0 0.0
2017-Jun-10 13:12N 31°42' E 121°09'0 0.0
2017-Jun-10 13:00N 31°42' E 121°09'0 0.0
2017-Jun-10 12:30N 31°42' E 121°09'0 0.0
2017-Jun-10 12:00N 31°42' E 121°09'0 0.0
2017-Jun-10 11:30N 31°42' E 121°09'0 0.0
2017-Jun-10 10:48N 31°42' E 121°09'0 0.0
2017-Jun-10 10:30N 31°42' E 121°09'0 0.0
2017-Jun-10 09:54N 31°42' E 121°09'0 0.0
2017-Jun-10 08:15N 31°42' E 121°09'0 0.0
2017-Jun-10 08:00N 31°42' E 121°09'0 0.0
2017-Jun-10 07:30N 31°42' E 121°09'0 0.0
2017-Jun-10 06:36N 31°42' E 121°09'0 0.0
2017-Jun-10 06:24N 31°42' E 121°09'0 0.0
2017-Jun-10 02:18N 31°42' E 121°09'0 0.0
2017-Jun-10 02:00N 31°42' E 121°09'0 0.0
2017-Jun-09 23:43N 31°42' E 121°09'0 0.0
2017-Jun-09 23:25N 31°42' E 121°09'0 0.0
2017-Jun-09 22:55N 31°42' E 121°09'0 0.0
2017-Jun-09 22:25N 31°42' E 121°09'0 0.0
2017-Jun-09 21:37N 31°42' E 121°09'0 0.0
2017-Jun-09 21:01N 31°42' E 121°09'0 0.0
2017-Jun-09 20:31N 31°42' E 121°09'0 0.0
2017-Jun-09 20:25N 31°42' E 121°09'0 0.0
2017-Jun-09 18:13N 31°42' E 121°09'0 0.0
2017-Jun-09 10:37N 31°42' E 121°09'0 0.0
2017-Jun-09 10:25N 31°42' E 121°09'0 0.0
2017-Jun-09 07:55N 31°42' E 121°09'0 0.0
2017-Jun-09 05:19N 31°42' E 121°09'0 0.0
2017-Jun-09 00:07N 31°42' E 121°09'0 0.0
2017-Jun-08 23:37N 31°42' E 121°09'0 0.0
2017-Jun-08 22:37N 31°42' E 121°09'0 0.0
2017-Jun-08 22:25N 31°42' E 121°09'0 0.0
2017-Jun-08 21:55N 31°42' E 121°09'0 0.0
2017-Jun-08 21:19N 31°42' E 121°09'0 0.0
2017-Jun-08 20:55N 31°42' E 121°09'0 0.0
2017-Jun-08 20:25N 31°42' E 121°09'0 0.0
2017-Jun-08 15:43N 31°42' E 121°09'0 0.0
2017-Jun-08 15:19N 31°42' E 121°09'0 0.0
2017-Jun-08 13:25N 31°42' E 121°09'0 0.0
2017-Jun-08 11:28N 31°42' E 121°09'0 0.0
2017-Jun-08 09:40N 31°42' E 121°09'0 0.0
2017-Jun-08 09:28N 31°42' E 121°09'0 0.0
2017-Jun-08 08:52N 31°42' E 121°09'0 0.0
2017-Jun-08 08:22N 31°42' E 121°09'0 0.0
2017-Jun-08 07:16N 31°42' E 121°09'0 0.0
2017-Jun-08 06:28N 31°42' E 121°09'0 0.0
2017-Jun-08 02:55N 31°42' E 121°09'0 0.0
2017-Jun-08 01:34N 31°42' E 121°09'0 0.0
2017-Jun-07 10:34N 31°42' E 121°09'0 0.0
2017-Jun-07 10:19N 31°42' E 121°09'0 0.0
2017-Jun-07 09:55N 31°42' E 121°09'0 0.0
2017-Jun-07 08:49N 31°42' E 121°09'0 0.0
2017-Jun-07 08:25N 31°42' E 121°09'0 0.0
2017-Jun-07 07:49N 31°42' E 121°09'0 0.0
2017-Jun-07 07:28N 31°42' E 121°09'0 0.0
2017-Jun-07 06:55N 31°42' E 121°09'0 0.0
2017-Jun-07 04:07N 31°42' E 121°09'0 0.0
2017-Jun-06 13:58N 31°42' E 121°09'0 0.0
2017-Jun-06 12:19N 31°42' E 121°09'0 0.0
2017-Jun-06 11:49N 31°42' E 121°09'0 0.0
2017-Jun-06 11:25N 31°42' E 121°09'0 0.0
2017-Jun-06 10:55N 31°42' E 121°09'0 0.0
2017-Jun-06 10:07N 31°42' E 121°09'0 0.0
2017-Jun-06 09:52N 31°42' E 121°09'0 0.0
2017-Jun-06 09:13N 31°42' E 121°09'0 0.0
2017-Jun-06 08:58N 31°42' E 121°09'0 0.0
2017-Jun-06 08:19N 31°42' E 121°09'0 0.0
2017-Jun-06 07:49N 31°42' E 121°09'0 0.0
2017-Jun-06 07:25N 31°42' E 121°09'0 0.0
2017-Jun-05 22:25N 31°42' E 121°09'0 0.0
2017-Jun-05 20:01N 31°42' E 121°09'0 0.1
2017-Jun-05 19:55N 31°42' E 121°09'0 0.0
2017-Jun-05 19:16N 31°42' E 121°09'0 0.0
2017-Jun-05 13:49N 31°42' E 121°09'0 0.0
2017-Jun-05 13:25N 31°42' E 121°09'0 0.0
2017-Jun-05 12:55N 31°42' E 121°09'0 0.0
2017-Jun-05 12:25N 31°42' E 121°09'0 0.0
2017-Jun-05 09:13N 31°42' E 121°09'0 1.0
2017-Jun-05 08:59N 31°42' E 121°09'3 6.0
2017-Jun-05 08:30N 31°40' E 121°12'2 4.8
2017-Jun-05 08:00N 31°39' E 121°15'0 0.1
2017-Jun-05 07:30N 31°39' E 121°15'0 0.0
2017-Jun-05 07:00N 31°39' E 121°15'0 0.0
2017-Jun-05 06:30N 31°39' E 121°15'0 0.1
2017-Jun-05 06:00N 31°39' E 121°15'0 0.3
2017-Jun-05 05:30N 31°39' E 121°15'0 0.2
2017-Jun-05 05:00N 31°39' E 121°15'0 0.0
2017-Jun-05 04:24N 31°39' E 121°15'0 0.1
2017-Jun-05 04:00N 31°40' E 121°15'0 0.1
2017-Jun-05 03:30N 31°39' E 121°15'0 0.0
2017-Jun-05 03:00N 31°39' E 121°15'0 0.0
2017-Jun-05 02:28N 31°39' E 121°15'0 0.0
2017-Jun-05 01:58N 31°39' E 121°15'0 0.0
2017-Jun-05 01:19N 31°39' E 121°15'0 0.0
2017-Jun-05 00:52N 31°39' E 121°15'0 0.0
2017-Jun-05 00:28N 31°39' E 121°15'0 0.0
2017-Jun-04 23:58N 31°39' E 121°15'0 0.1
2017-Jun-04 23:22N 31°39' E 121°15'0 0.4
2017-Jun-04 22:58N 31°39' E 121°15'0 0.1
2017-Jun-04 22:28N 31°39' E 121°15'0 0.0
2017-Jun-04 21:58N 31°39' E 121°15'0 0.0
2017-Jun-04 21:28N 31°39' E 121°15'0 0.0
2017-Jun-04 20:52N 31°39' E 121°15'0 0.0
2017-Jun-04 20:22N 31°39' E 121°15'0 0.0
2017-Jun-04 19:52N 31°39' E 121°15'0 0.0
2017-Jun-04 19:28N 31°39' E 121°15'0 0.0
2017-Jun-04 18:58N 31°39' E 121°15'0 0.0
2017-Jun-04 18:31N 31°39' E 121°15'0 0.0
2017-Jun-04 17:58N 31°39' E 121°15'0 0.1
2017-Jun-04 17:28N 31°39' E 121°15'0 0.2
2017-Jun-04 16:58N 31°39' E 121°15'0 0.2
2017-Jun-04 16:28N 31°39' E 121°15'0 0.0
2017-Jun-04 15:34N 31°39' E 121°15'0 0.3
2017-Jun-04 15:22N 31°39' E 121°15'0 0.0
2017-Jun-04 14:58N 31°39' E 121°15'0 0.0
2017-Jun-04 14:28N 31°39' E 121°15'0 0.0
2017-Jun-04 13:28N 31°39' E 121°15'0 0.0
2017-Jun-04 12:52N 31°39' E 121°15'0 0.0
2017-Jun-04 12:28N 31°39' E 121°15'0 0.0
2017-Jun-04 11:58N 31°39' E 121°15'0 0.1
2017-Jun-04 11:28N 31°39' E 121°15'0 0.2
2017-Jun-04 10:58N 31°39' E 121°15'0 0.2
2017-Jun-04 10:28N 31°39' E 121°15'0 0.0
2017-Jun-04 09:58N 31°39' E 121°15'0 0.1
2017-Jun-04 09:24N 31°39' E 121°15'0 0.0
2017-Jun-04 09:00N 31°39' E 121°15'0 0.0
2017-Jun-04 08:30N 31°39' E 121°15'0 0.0
2017-Jun-04 07:54N 31°39' E 121°15'0 0.0
2017-Jun-04 07:30N 31°39' E 121°15'0 0.0
2017-Jun-04 07:00N 31°39' E 121°15'0 0.0
2017-Jun-04 06:18N 31°39' E 121°15'0 0.0
2017-Jun-04 05:54N 31°39' E 121°15'0 0.0
2017-Jun-04 05:30N 31°39' E 121°15'0 0.0
2017-Jun-04 05:00N 31°39' E 121°15'0 0.1
2017-Jun-04 04:30N 31°39' E 121°15'0 0.2
2017-Jun-04 04:00N 31°39' E 121°15'0 0.2
2017-Jun-04 03:30N 31°39' E 121°15'0 0.0
2017-Jun-04 03:00N 31°39' E 121°15'0 0.0
2017-Jun-04 02:27N 31°39' E 121°15'0 0.0
2017-Jun-04 01:57N 31°39' E 121°15'0 0.0
2017-Jun-04 01:27N 31°39' E 121°15'0 0.0
2017-Jun-04 01:00N 31°39' E 121°15'0 0.0
2017-Jun-04 00:15N 31°39' E 121°15'0 0.0
2017-Jun-03 23:57N 31°39' E 121°15'0 0.0
2017-Jun-03 23:18N 31°39' E 121°15'0 0.0
2017-Jun-03 23:00N 31°39' E 121°15'0 0.3
2017-Jun-03 22:30N 31°39' E 121°15'0 0.1
2017-Jun-03 22:00N 31°39' E 121°15'0 0.1
2017-Jun-03 21:30N 31°39' E 121°15'0 0.0
2017-Jun-03 21:00N 31°39' E 121°15'0 0.0
2017-Jun-03 20:30N 31°39' E 121°15'0 0.0
2017-Jun-03 20:00N 31°39' E 121°15'0 0.0
2017-Jun-03 19:30N 31°39' E 121°15'0 0.0
2017-Jun-03 19:00N 31°39' E 121°15'0 0.0
2017-Jun-03 18:30N 31°39' E 121°15'0 0.0
2017-Jun-03 17:54N 31°39' E 121°15'0 0.0
2017-Jun-03 17:30N 31°39' E 121°15'0 0.0
2017-Jun-03 16:54N 31°39' E 121°15'0 0.1
2017-Jun-03 16:30N 31°39' E 121°15'0 0.2
2017-Jun-03 15:54N 31°39' E 121°15'0 0.3
2017-Jun-03 15:30N 31°39' E 121°15'0 0.1
2017-Jun-03 15:00N 31°39' E 121°15'0 0.0
2017-Jun-03 14:00N 31°39' E 121°15'0 0.0
2017-Jun-03 13:30N 31°39' E 121°15'0 0.0
2017-Jun-03 13:00N 31°39' E 121°15'0 0.0
2017-Jun-03 12:14N 31°39' E 121°15'0 0.0
2017-Jun-03 12:00N 31°39' E 121°15'0 0.0
2017-Jun-03 11:06N 31°39' E 121°15'0 0.2
2017-Jun-03 11:00N 31°39' E 121°15'0 0.0
2017-Jun-03 10:30N 31°39' E 121°15'0 0.1
2017-Jun-03 10:00N 31°39' E 121°15'0 0.2
2017-Jun-03 09:30N 31°39' E 121°15'0 0.2
2017-Jun-03 08:54N 31°39' E 121°15'0 0.0
2017-Jun-03 08:24N 31°39' E 121°15'0 0.0
2017-Jun-03 08:00N 31°39' E 121°15'0 0.0
2017-Jun-03 07:30N 31°39' E 121°15'0 0.0
2017-Jun-03 06:54N 31°39' E 121°15'0 0.0
2017-Jun-03 06:30N 31°39' E 121°15'0 0.0
2017-Jun-03 05:54N 31°39' E 121°15'0 0.0
2017-Jun-03 05:30N 31°39' E 121°15'0 0.1
2017-Jun-03 05:00N 31°39' E 121°15'2 3.3
2017-Jun-03 04:30N 31°38' E 121°16'510.9
2017-Jun-03 04:00N 31°34' E 121°19'611.5
2017-Jun-03 03:30N 31°30' E 121°25'611.5
2017-Jun-03 03:00N 31°26' E 121°30'3 5.7
2017-Jun-03 02:30N 31°25' E 121°32'3 5.3
2017-Jun-03 02:01N 31°23' E 121°35'4 7.3
2017-Jun-03 01:29N 31°21' E 121°39'510.5
2017-Jun-03 01:00N 31°19' E 121°44'510.8
2017-Jun-03 00:30N 31°17' E 121°50'611.0
2017-Jun-03 00:00N 31°15' E 121°56'610.8
2017-Jun-02 23:29N 31°14' E 122°03'510.7
2017-Jun-02 23:00N 31°12' E 122°08'611.7
2017-Jun-02 22:29N 31°09' E 122°14'910.9
2017-Jun-02 21:40N 31°06' E 122°24'211.3
2017-Jun-02 21:31N 31°07' E 122°26'4 8.3
2017-Jun-02 20:59N 31°07' E 122°31'4 8.6
2017-Jun-02 20:30N 31°07' E 122°36'2 4.3
2017-Jun-02 20:00N 31°07' E 122°38'1 2.3
2017-Jun-02 19:30N 31°07' E 122°40'3 5.9
2017-Jun-02 19:00N 31°07' E 122°43'611.4
2017-Jun-02 18:30N 31°11' E 122°48'713.1
2017-Jun-02 18:00N 31°17' E 122°51'713.4
2017-Jun-02 17:28N 31°24' E 122°55'613.7
2017-Jun-02 16:59N 31°29' E 122°58'713.8
2017-Jun-02 16:30N 31°36' E 123°01'3913.6
2017-Jun-02 13:38N 32°11' E 123°21'413.3
2017-Jun-02 13:22N 32°14' E 123°23'513.0
2017-Jun-02 12:58N 32°19' E 123°26'2712.6
2017-Jun-02 10:50N 32°43' E 123°39'412.2
2017-Jun-02 10:28N 32°47' E 123°41'612.1
2017-Jun-02 09:59N 32°52' E 123°45'712.3
2017-Jun-02 09:24N 32°59' E 123°48'  

Dump ship's entire track history